sensor_id;sensor_type;location;lat;lon;timestamp;temperature;humidity
17370;DHT22;8802;52.402;4.920;2023-09-12T00:00:45;23.70;99.90
17370;DHT22;8802;52.402;4.920;2023-09-12T00:03:14;23.70;99.90
17370;DHT22;8802;52.402;4.920;2023-09-12T00:05:41;23.70;99.90
17370;DHT22;8802;52.402;4.920;2023-09-12T00:08:08;23.70;99.90
17370;DHT22;8802;52.402;4.920;2023-09-12T00:10:35;23.60;99.90
17370;DHT22;8802;52.402;4.920;2023-09-12T00:13:02;23.60;99.90
17370;DHT22;8802;52.402;4.920;2023-09-12T00:15:29;23.60;99.90
17370;DHT22;8802;52.402;4.920;2023-09-12T00:17:56;23.60;99.90
17370;DHT22;8802;52.402;4.920;2023-09-12T00:20:24;23.60;99.90
17370;DHT22;8802;52.402;4.920;2023-09-12T00:22:51;23.60;99.90
17370;DHT22;8802;52.402;4.920;2023-09-12T00:25:20;23.50;99.90
17370;DHT22;8802;52.402;4.920;2023-09-12T00:27:47;23.60;99.90
17370;DHT22;8802;52.402;4.920;2023-09-12T00:30:14;23.50;99.90
17370;DHT22;8802;52.402;4.920;2023-09-12T00:32:41;23.50;99.90
17370;DHT22;8802;52.402;4.920;2023-09-12T00:35:08;23.50;99.90
17370;DHT22;8802;52.402;4.920;2023-09-12T00:37:37;23.50;99.90
17370;DHT22;8802;52.402;4.920;2023-09-12T00:40:05;23.40;99.90
17370;DHT22;8802;52.402;4.920;2023-09-12T00:42:32;23.40;99.90
17370;DHT22;8802;52.402;4.920;2023-09-12T00:44:59;23.40;99.90
17370;DHT22;8802;52.402;4.920;2023-09-12T00:47:26;23.40;99.90
17370;DHT22;8802;52.402;4.920;2023-09-12T00:49:53;23.40;99.90
17370;DHT22;8802;52.402;4.920;2023-09-12T00:52:23;23.40;99.90
17370;DHT22;8802;52.402;4.920;2023-09-12T00:54:52;23.40;99.90
17370;DHT22;8802;52.402;4.920;2023-09-12T00:57:21;23.30;99.90
17370;DHT22;8802;52.402;4.920;2023-09-12T00:59:48;23.30;99.90
17370;DHT22;8802;52.402;4.920;2023-09-12T01:02:15;23.30;99.90
17370;DHT22;8802;52.402;4.920;2023-09-12T01:04:43;23.30;99.90
17370;DHT22;8802;52.402;4.920;2023-09-12T01:07:09;23.30;99.90
17370;DHT22;8802;52.402;4.920;2023-09-12T01:09:36;23.20;99.90
17370;DHT22;8802;52.402;4.920;2023-09-12T01:12:06;23.20;99.90
17370;DHT22;8802;52.402;4.920;2023-09-12T01:14:33;23.20;99.90
17370;DHT22;8802;52.402;4.920;2023-09-12T01:17:00;23.30;99.90
17370;DHT22;8802;52.402;4.920;2023-09-12T01:19:28;23.20;99.90
17370;DHT22;8802;52.402;4.920;2023-09-12T01:22:10;23.10;99.90
17370;DHT22;8802;52.402;4.920;2023-09-12T01:25:06;23.10;99.90
17370;DHT22;8802;52.402;4.920;2023-09-12T01:27:37;23.10;99.90
17370;DHT22;8802;52.402;4.920;2023-09-12T01:30:06;23.10;99.90
17370;DHT22;8802;52.402;4.920;2023-09-12T01:32:35;23.10;99.90
17370;DHT22;8802;52.402;4.920;2023-09-12T01:35:03;23.10;99.90
17370;DHT22;8802;52.402;4.920;2023-09-12T01:37:30;23.10;99.90
17370;DHT22;8802;52.402;4.920;2023-09-12T01:39:57;23.00;99.90
17370;DHT22;8802;52.402;4.920;2023-09-12T01:42:25;23.00;99.90
17370;DHT22;8802;52.402;4.920;2023-09-12T01:44:56;23.00;99.90
17370;DHT22;8802;52.402;4.920;2023-09-12T01:47:25;23.00;99.90
17370;DHT22;8802;52.402;4.920;2023-09-12T01:49:55;23.00;99.90
17370;DHT22;8802;52.402;4.920;2023-09-12T01:52:24;23.00;99.90
17370;DHT22;8802;52.402;4.920;2023-09-12T01:54:52;23.00;99.90
17370;DHT22;8802;52.402;4.920;2023-09-12T01:57:19;22.90;99.90
17370;DHT22;8802;52.402;4.920;2023-09-12T01:59:47;23.00;99.90
17370;DHT22;8802;52.402;4.920;2023-09-12T02:02:16;22.90;99.90
17370;DHT22;8802;52.402;4.920;2023-09-12T02:04:50;22.90;99.90
17370;DHT22;8802;52.402;4.920;2023-09-12T02:07:17;22.90;99.90
17370;DHT22;8802;52.402;4.920;2023-09-12T02:09:44;22.90;99.90
17370;DHT22;8802;52.402;4.920;2023-09-12T02:12:11;22.90;99.90
17370;DHT22;8802;52.402;4.920;2023-09-12T02:14:38;22.90;99.90
17370;DHT22;8802;52.402;4.920;2023-09-12T02:17:05;22.90;99.90
17370;DHT22;8802;52.402;4.920;2023-09-12T02:19:33;22.90;99.90
17370;DHT22;8802;52.402;4.920;2023-09-12T02:22:00;22.90;99.90
17370;DHT22;8802;52.402;4.920;2023-09-12T02:24:27;22.90;99.90
17370;DHT22;8802;52.402;4.920;2023-09-12T02:26:54;22.90;99.90
17370;DHT22;8802;52.402;4.920;2023-09-12T02:29:20;22.80;99.90
17370;DHT22;8802;52.402;4.920;2023-09-12T02:31:47;22.80;99.90
17370;DHT22;8802;52.402;4.920;2023-09-12T02:34:14;22.90;99.90
17370;DHT22;8802;52.402;4.920;2023-09-12T02:36:43;22.80;99.90
17370;DHT22;8802;52.402;4.920;2023-09-12T02:39:10;22.80;99.90
17370;DHT22;8802;52.402;4.920;2023-09-12T02:41:36;22.80;99.90
17370;DHT22;8802;52.402;4.920;2023-09-12T02:44:04;22.80;99.90
17370;DHT22;8802;52.402;4.920;2023-09-12T02:46:31;22.80;99.90
17370;DHT22;8802;52.402;4.920;2023-09-12T02:48:58;22.80;99.90
17370;DHT22;8802;52.402;4.920;2023-09-12T02:51:25;22.80;99.90
17370;DHT22;8802;52.402;4.920;2023-09-12T02:53:54;22.80;99.90
17370;DHT22;8802;52.402;4.920;2023-09-12T02:56:21;22.80;99.90
17370;DHT22;8802;52.402;4.920;2023-09-12T02:58:48;22.80;99.90
17370;DHT22;8802;52.402;4.920;2023-09-12T03:01:15;22.80;99.90
17370;DHT22;8802;52.402;4.920;2023-09-12T03:03:42;22.80;99.90
17370;DHT22;8802;52.402;4.920;2023-09-12T03:06:12;22.80;99.90
17370;DHT22;8802;52.402;4.920;2023-09-12T03:08:39;22.80;99.90
17370;DHT22;8802;52.402;4.920;2023-09-12T03:11:08;22.80;99.90
17370;DHT22;8802;52.402;4.920;2023-09-12T03:13:35;22.70;99.90
17370;DHT22;8802;52.402;4.920;2023-09-12T03:16:03;22.70;99.90
17370;DHT22;8802;52.402;4.920;2023-09-12T03:18:30;22.70;99.90
17370;DHT22;8802;52.402;4.920;2023-09-12T03:20:57;22.70;99.90
17370;DHT22;8802;52.402;4.920;2023-09-12T03:23:24;22.70;99.90
17370;DHT22;8802;52.402;4.920;2023-09-12T03:25:51;22.70;99.90
17370;DHT22;8802;52.402;4.920;2023-09-12T03:28:19;22.70;99.90
17370;DHT22;8802;52.402;4.920;2023-09-12T03:30:46;22.70;99.90
17370;DHT22;8802;52.402;4.920;2023-09-12T03:33:13;22.70;99.90
17370;DHT22;8802;52.402;4.920;2023-09-12T03:35:43;22.70;99.90
17370;DHT22;8802;52.402;4.920;2023-09-12T03:38:10;22.70;99.90
17370;DHT22;8802;52.402;4.920;2023-09-12T03:40:37;22.70;99.90
17370;DHT22;8802;52.402;4.920;2023-09-12T03:43:04;22.70;99.90
17370;DHT22;8802;52.402;4.920;2023-09-12T03:45:32;22.70;99.90
17370;DHT22;8802;52.402;4.920;2023-09-12T03:47:59;22.70;99.90
17370;DHT22;8802;52.402;4.920;2023-09-12T03:50:26;22.70;99.90
17370;DHT22;8802;52.402;4.920;2023-09-12T03:52:53;22.70;99.90
17370;DHT22;8802;52.402;4.920;2023-09-12T03:55:20;22.70;99.90
17370;DHT22;8802;52.402;4.920;2023-09-12T03:57:47;22.70;99.90
17370;DHT22;8802;52.402;4.920;2023-09-12T04:00:15;22.70;99.90
17370;DHT22;8802;52.402;4.920;2023-09-12T04:02:43;22.60;99.90
17370;DHT22;8802;52.402;4.920;2023-09-12T04:05:10;22.60;99.90
17370;DHT22;8802;52.402;4.920;2023-09-12T04:07:37;22.60;99.90
17370;DHT22;8802;52.402;4.920;2023-09-12T04:10:04;22.70;99.90
17370;DHT22;8802;52.402;4.920;2023-09-12T04:12:32;22.60;99.90
17370;DHT22;8802;52.402;4.920;2023-09-12T04:14:58;22.70;99.90
17370;DHT22;8802;52.402;4.920;2023-09-12T04:17:25;22.60;99.90
17370;DHT22;8802;52.402;4.920;2023-09-12T04:19:54;22.60;99.90
17370;DHT22;8802;52.402;4.920;2023-09-12T04:22:21;22.60;99.90
17370;DHT22;8802;52.402;4.920;2023-09-12T04:24:48;22.60;99.90
17370;DHT22;8802;52.402;4.920;2023-09-12T04:27:14;22.60;99.90
17370;DHT22;8802;52.402;4.920;2023-09-12T04:29:41;22.70;99.90
17370;DHT22;8802;52.402;4.920;2023-09-12T04:32:08;22.60;99.90
17370;DHT22;8802;52.402;4.920;2023-09-12T04:34:35;22.60;99.90
17370;DHT22;8802;52.402;4.920;2023-09-12T04:37:04;22.60;99.90
17370;DHT22;8802;52.402;4.920;2023-09-12T04:39:31;22.60;99.90
17370;DHT22;8802;52.402;4.920;2023-09-12T04:41:58;22.60;99.90
17370;DHT22;8802;52.402;4.920;2023-09-12T04:44:25;22.60;99.90
17370;DHT22;8802;52.402;4.920;2023-09-12T04:46:52;22.60;99.90
17370;DHT22;8802;52.402;4.920;2023-09-12T04:49:19;22.60;99.90
17370;DHT22;8802;52.402;4.920;2023-09-12T04:51:46;22.60;99.90
17370;DHT22;8802;52.402;4.920;2023-09-12T04:54:14;22.60;99.90
17370;DHT22;8802;52.402;4.920;2023-09-12T04:56:41;22.60;99.90
17370;DHT22;8802;52.402;4.920;2023-09-12T04:59:08;22.60;99.90
17370;DHT22;8802;52.402;4.920;2023-09-12T05:01:35;22.60;99.90
17370;DHT22;8802;52.402;4.920;2023-09-12T05:04:02;22.60;99.90
17370;DHT22;8802;52.402;4.920;2023-09-12T05:06:29;22.60;99.90
17370;DHT22;8802;52.402;4.920;2023-09-12T05:08:56;22.60;99.90
17370;DHT22;8802;52.402;4.920;2023-09-12T05:11:25;22.50;99.90
17370;DHT22;8802;52.402;4.920;2023-09-12T05:13:52;22.50;99.90
17370;DHT22;8802;52.402;4.920;2023-09-12T05:16:19;22.60;99.90
17370;DHT22;8802;52.402;4.920;2023-09-12T05:18:46;22.50;99.90
17370;DHT22;8802;52.402;4.920;2023-09-12T05:21:14;22.50;99.90
17370;DHT22;8802;52.402;4.920;2023-09-12T05:23:41;22.50;99.90
17370;DHT22;8802;52.402;4.920;2023-09-12T05:26:08;22.60;99.90
17370;DHT22;8802;52.402;4.920;2023-09-12T05:28:37;22.60;99.90
17370;DHT22;8802;52.402;4.920;2023-09-12T05:31:04;22.50;99.90
17370;DHT22;8802;52.402;4.920;2023-09-12T05:33:31;22.60;99.90
17370;DHT22;8802;52.402;4.920;2023-09-12T05:35:58;22.60;99.90
17370;DHT22;8802;52.402;4.920;2023-09-12T05:38:25;22.60;99.90
17370;DHT22;8802;52.402;4.920;2023-09-12T05:40:51;22.60;99.90
17370;DHT22;8802;52.402;4.920;2023-09-12T05:43:18;22.60;99.90
17370;DHT22;8802;52.402;4.920;2023-09-12T05:45:47;22.60;99.90
17370;DHT22;8802;52.402;4.920;2023-09-12T05:48:14;22.60;99.90
17370;DHT22;8802;52.402;4.920;2023-09-12T05:50:41;22.60;99.90
17370;DHT22;8802;52.402;4.920;2023-09-12T05:53:08;22.60;99.90
17370;DHT22;8802;52.402;4.920;2023-09-12T05:55:35;22.60;99.90
17370;DHT22;8802;52.402;4.920;2023-09-12T05:58:03;22.50;99.90
17370;DHT22;8802;52.402;4.920;2023-09-12T06:00:31;22.60;99.90
17370;DHT22;8802;52.402;4.920;2023-09-12T06:03:00;22.60;99.90
17370;DHT22;8802;52.402;4.920;2023-09-12T06:05:27;22.60;99.90
17370;DHT22;8802;52.402;4.920;2023-09-12T06:07:54;22.60;99.90
17370;DHT22;8802;52.402;4.920;2023-09-12T06:10:21;22.60;99.90
17370;DHT22;8802;52.402;4.920;2023-09-12T06:12:48;22.60;99.90
17370;DHT22;8802;52.402;4.920;2023-09-12T06:15:16;22.60;99.90
17370;DHT22;8802;52.402;4.920;2023-09-12T06:17:43;22.60;99.90
17370;DHT22;8802;52.402;4.920;2023-09-12T06:20:11;22.70;99.90
17370;DHT22;8802;52.402;4.920;2023-09-12T06:22:38;22.70;99.90
17370;DHT22;8802;52.402;4.920;2023-09-12T06:25:06;22.60;99.90
17370;DHT22;8802;52.402;4.920;2023-09-12T06:27:33;22.70;99.90
17370;DHT22;8802;52.402;4.920;2023-09-12T06:30:00;22.70;99.90
17370;DHT22;8802;52.402;4.920;2023-09-12T06:32:27;22.70;99.90
17370;DHT22;8802;52.402;4.920;2023-09-12T06:34:54;22.70;99.90
17370;DHT22;8802;52.402;4.920;2023-09-12T06:37:22;22.70;99.90
17370;DHT22;8802;52.402;4.920;2023-09-12T06:39:49;22.70;99.90
17370;DHT22;8802;52.402;4.920;2023-09-12T06:42:17;22.80;99.90
17370;DHT22;8802;52.402;4.920;2023-09-12T06:44:44;22.80;99.90
17370;DHT22;8802;52.402;4.920;2023-09-12T06:47:11;22.90;99.90
17370;DHT22;8802;52.402;4.920;2023-09-12T06:49:38;22.80;99.90
17370;DHT22;8802;52.402;4.920;2023-09-12T06:52:06;22.80;99.90
17370;DHT22;8802;52.402;4.920;2023-09-12T06:54:36;22.90;99.90
17370;DHT22;8802;52.402;4.920;2023-09-12T06:57:03;22.90;99.90
17370;DHT22;8802;52.402;4.920;2023-09-12T06:59:30;22.90;99.90
17370;DHT22;8802;52.402;4.920;2023-09-12T07:01:57;22.90;99.90
17370;DHT22;8802;52.402;4.920;2023-09-12T07:04:24;22.90;99.90
17370;DHT22;8802;52.402;4.920;2023-09-12T07:06:52;23.00;99.90
17370;DHT22;8802;52.402;4.920;2023-09-12T07:09:18;23.00;99.90
17370;DHT22;8802;52.402;4.920;2023-09-12T07:11:47;23.00;99.90
17370;DHT22;8802;52.402;4.920;2023-09-12T07:14:15;23.00;99.90
17370;DHT22;8802;52.402;4.920;2023-09-12T07:16:42;23.00;99.90
17370;DHT22;8802;52.402;4.920;2023-09-12T07:19:09;23.00;99.90
17370;DHT22;8802;52.402;4.920;2023-09-12T07:21:36;23.00;99.90
17370;DHT22;8802;52.402;4.920;2023-09-12T07:24:03;23.10;99.90
17370;DHT22;8802;52.402;4.920;2023-09-12T07:26:31;23.10;99.90
17370;DHT22;8802;52.402;4.920;2023-09-12T07:28:59;23.10;99.90
17370;DHT22;8802;52.402;4.920;2023-09-12T07:31:28;23.10;99.90
17370;DHT22;8802;52.402;4.920;2023-09-12T07:33:55;23.10;99.90
17370;DHT22;8802;52.402;4.920;2023-09-12T07:36:22;23.10;99.90
17370;DHT22;8802;52.402;4.920;2023-09-12T07:38:48;23.20;99.90
17370;DHT22;8802;52.402;4.920;2023-09-12T07:41:15;23.20;99.90
17370;DHT22;8802;52.402;4.920;2023-09-12T07:43:42;23.20;99.90
17370;DHT22;8802;52.402;4.920;2023-09-12T07:46:11;23.30;99.90
17370;DHT22;8802;52.402;4.920;2023-09-12T07:48:38;23.30;99.90
17370;DHT22;8802;52.402;4.920;2023-09-12T07:51:12;23.30;99.90
17370;DHT22;8802;52.402;4.920;2023-09-12T07:53:40;23.40;99.90
17370;DHT22;8802;52.402;4.920;2023-09-12T07:56:08;23.40;99.90
17370;DHT22;8802;52.402;4.920;2023-09-12T07:58:35;23.50;99.90
17370;DHT22;8802;52.402;4.920;2023-09-12T08:01:05;23.50;99.90
17370;DHT22;8802;52.402;4.920;2023-09-12T08:03:33;23.60;99.90
17370;DHT22;8802;52.402;4.920;2023-09-12T08:06:00;23.60;99.90
17370;DHT22;8802;52.402;4.920;2023-09-12T08:08:28;23.70;99.90
17370;DHT22;8802;52.402;4.920;2023-09-12T08:10:55;23.70;99.90
17370;DHT22;8802;52.402;4.920;2023-09-12T08:13:25;23.90;99.90
17370;DHT22;8802;52.402;4.920;2023-09-12T08:15:52;23.90;99.90
17370;DHT22;8802;52.402;4.920;2023-09-12T08:18:19;23.90;99.90
17370;DHT22;8802;52.402;4.920;2023-09-12T08:20:47;24.00;99.90
17370;DHT22;8802;52.402;4.920;2023-09-12T08:23:14;24.00;99.90
17370;DHT22;8802;52.402;4.920;2023-09-12T08:25:41;24.10;99.90
17370;DHT22;8802;52.402;4.920;2023-09-12T08:28:08;24.10;99.90
17370;DHT22;8802;52.402;4.920;2023-09-12T08:30:35;24.20;99.90
17370;DHT22;8802;52.402;4.920;2023-09-12T08:33:02;24.20;99.90
17370;DHT22;8802;52.402;4.920;2023-09-12T08:35:30;24.30;99.90
17370;DHT22;8802;52.402;4.920;2023-09-12T08:37:58;24.30;99.90
17370;DHT22;8802;52.402;4.920;2023-09-12T08:40:25;24.30;99.90
17370;DHT22;8802;52.402;4.920;2023-09-12T08:42:52;24.30;99.90
17370;DHT22;8802;52.402;4.920;2023-09-12T08:45:19;24.40;99.90
17370;DHT22;8802;52.402;4.920;2023-09-12T08:47:50;24.40;99.90
17370;DHT22;8802;52.402;4.920;2023-09-12T08:50:18;24.50;99.90
17370;DHT22;8802;52.402;4.920;2023-09-12T08:52:47;24.50;99.90
17370;DHT22;8802;52.402;4.920;2023-09-12T08:55:15;24.60;99.90
17370;DHT22;8802;52.402;4.920;2023-09-12T08:57:43;24.60;99.90
17370;DHT22;8802;52.402;4.920;2023-09-12T09:00:11;24.70;99.90
17370;DHT22;8802;52.402;4.920;2023-09-12T09:02:40;24.80;99.90
17370;DHT22;8802;52.402;4.920;2023-09-12T09:05:08;24.80;99.90
17370;DHT22;8802;52.402;4.920;2023-09-12T09:07:36;24.80;99.90
17370;DHT22;8802;52.402;4.920;2023-09-12T09:10:04;24.80;99.90
17370;DHT22;8802;52.402;4.920;2023-09-12T09:12:34;24.90;99.90
17370;DHT22;8802;52.402;4.920;2023-09-12T09:15:19;24.90;99.90
17370;DHT22;8802;52.402;4.920;2023-09-12T09:17:46;24.90;99.90
17370;DHT22;8802;52.402;4.920;2023-09-12T09:20:22;25.00;99.90
17370;DHT22;8802;52.402;4.920;2023-09-12T09:22:56;25.00;99.90
17370;DHT22;8802;52.402;4.920;2023-09-12T09:25:23;25.00;99.90
17370;DHT22;8802;52.402;4.920;2023-09-12T09:27:52;25.10;99.90
17370;DHT22;8802;52.402;4.920;2023-09-12T09:30:27;25.10;99.90
17370;DHT22;8802;52.402;4.920;2023-09-12T09:33:05;25.10;99.90
17370;DHT22;8802;52.402;4.920;2023-09-12T09:35:32;25.20;99.90
17370;DHT22;8802;52.402;4.920;2023-09-12T09:37:59;25.20;99.90
17370;DHT22;8802;52.402;4.920;2023-09-12T09:40:26;25.20;99.90
17370;DHT22;8802;52.402;4.920;2023-09-12T09:42:55;25.30;99.90
17370;DHT22;8802;52.402;4.920;2023-09-12T09:45:23;25.30;99.90
17370;DHT22;8802;52.402;4.920;2023-09-12T09:47:50;25.30;99.90
17370;DHT22;8802;52.402;4.920;2023-09-12T09:50:17;25.40;99.90
17370;DHT22;8802;52.402;4.920;2023-09-12T09:52:44;25.40;99.90
17370;DHT22;8802;52.402;4.920;2023-09-12T09:55:13;25.50;99.90
17370;DHT22;8802;52.402;4.920;2023-09-12T09:57:40;25.50;99.90
17370;DHT22;8802;52.402;4.920;2023-09-12T10:00:09;25.50;99.90
17370;DHT22;8802;52.402;4.920;2023-09-12T10:02:40;25.60;99.90
17370;DHT22;8802;52.402;4.920;2023-09-12T10:05:09;25.70;99.90
17370;DHT22;8802;52.402;4.920;2023-09-12T10:07:37;25.70;99.90
17370;DHT22;8802;52.402;4.920;2023-09-12T10:10:05;25.80;99.90
17370;DHT22;8802;52.402;4.920;2023-09-12T10:12:35;25.80;99.90
17370;DHT22;8802;52.402;4.920;2023-09-12T10:15:04;25.90;99.90
17370;DHT22;8802;52.402;4.920;2023-09-12T10:17:36;26.00;99.90
17370;DHT22;8802;52.402;4.920;2023-09-12T10:20:04;26.00;99.90
17370;DHT22;8802;52.402;4.920;2023-09-12T10:22:39;26.10;99.90
17370;DHT22;8802;52.402;4.920;2023-09-12T10:25:07;26.10;99.90
17370;DHT22;8802;52.402;4.920;2023-09-12T10:27:35;26.10;99.90
17370;DHT22;8802;52.402;4.920;2023-09-12T10:30:02;26.20;99.90
17370;DHT22;8802;52.402;4.920;2023-09-12T10:32:32;26.20;99.90
17370;DHT22;8802;52.402;4.920;2023-09-12T10:35:02;26.20;99.90
17370;DHT22;8802;52.402;4.920;2023-09-12T10:37:32;26.30;99.90
17370;DHT22;8802;52.402;4.920;2023-09-12T10:40:02;26.30;99.40
17370;DHT22;8802;52.402;4.920;2023-09-12T10:42:33;26.40;99.70
17370;DHT22;8802;52.402;4.920;2023-09-12T10:45:04;26.40;99.60
17370;DHT22;8802;52.402;4.920;2023-09-12T10:47:35;26.40;99.20
17370;DHT22;8802;52.402;4.920;2023-09-12T10:50:02;26.50;99.40
17370;DHT22;8802;52.402;4.920;2023-09-12T10:52:29;26.50;99.30
17370;DHT22;8802;52.402;4.920;2023-09-12T10:54:56;26.50;99.50
17370;DHT22;8802;52.402;4.920;2023-09-12T10:57:24;26.60;99.10
17370;DHT22;8802;52.402;4.920;2023-09-12T11:00:18;26.60;99.00
17370;DHT22;8802;52.402;4.920;2023-09-12T11:02:46;26.70;99.40
17370;DHT22;8802;52.402;4.920;2023-09-12T11:05:35;26.70;98.70
17370;DHT22;8802;52.402;4.920;2023-09-12T11:08:02;26.70;98.90
17370;DHT22;8802;52.402;4.920;2023-09-12T11:10:30;26.70;98.70
17370;DHT22;8802;52.402;4.920;2023-09-12T11:12:58;26.70;98.60
17370;DHT22;8802;52.402;4.920;2023-09-12T11:15:26;26.70;98.30
17370;DHT22;8802;52.402;4.920;2023-09-12T11:18:05;26.70;98.30
17370;DHT22;8802;52.402;4.920;2023-09-12T11:20:52;26.70;98.00
17370;DHT22;8802;52.402;4.920;2023-09-12T11:23:19;26.80;98.10
17370;DHT22;8802;52.402;4.920;2023-09-12T11:25:47;26.80;98.00
17370;DHT22;8802;52.402;4.920;2023-09-12T11:28:14;26.70;98.00
17370;DHT22;8802;52.402;4.920;2023-09-12T11:30:55;26.80;98.10
17370;DHT22;8802;52.402;4.920;2023-09-12T11:33:25;26.70;97.80
17370;DHT22;8802;52.402;4.920;2023-09-12T11:35:53;26.70;98.00
17370;DHT22;8802;52.402;4.920;2023-09-12T11:38:28;26.70;98.00
17370;DHT22;8802;52.402;4.920;2023-09-12T11:40:55;26.70;98.30
17370;DHT22;8802;52.402;4.920;2023-09-12T11:43:24;26.70;97.80
17370;DHT22;8802;52.402;4.920;2023-09-12T11:45:52;26.60;98.30
17370;DHT22;8802;52.402;4.920;2023-09-12T11:48:19;26.70;97.50
17370;DHT22;8802;52.402;4.920;2023-09-12T11:50:52;26.60;97.30
17370;DHT22;8802;52.402;4.920;2023-09-12T11:53:20;26.70;97.40
17370;DHT22;8802;52.402;4.920;2023-09-12T11:55:50;26.70;97.70
17370;DHT22;8802;52.402;4.920;2023-09-12T11:58:18;26.70;97.20
17370;DHT22;8802;52.402;4.920;2023-09-12T12:00:47;26.70;97.80
17370;DHT22;8802;52.402;4.920;2023-09-12T12:03:15;26.80;97.70
17370;DHT22;8802;52.402;4.920;2023-09-12T12:05:42;26.80;97.40
17370;DHT22;8802;52.402;4.920;2023-09-12T12:08:11;26.90;97.50
17370;DHT22;8802;52.402;4.920;2023-09-12T12:10:38;26.90;97.40
17370;DHT22;8802;52.402;4.920;2023-09-12T12:13:06;27.00;97.20
17370;DHT22;8802;52.402;4.920;2023-09-12T12:15:33;27.00;97.40
17370;DHT22;8802;52.402;4.920;2023-09-12T12:18:00;27.10;97.30
17370;DHT22;8802;52.402;4.920;2023-09-12T12:20:27;27.10;97.20
17370;DHT22;8802;52.402;4.920;2023-09-12T12:22:55;27.10;97.00
17370;DHT22;8802;52.402;4.920;2023-09-12T12:25:24;27.20;96.90
17370;DHT22;8802;52.402;4.920;2023-09-12T12:27:51;27.20;96.90
17370;DHT22;8802;52.402;4.920;2023-09-12T12:30:18;27.20;96.20
17370;DHT22;8802;52.402;4.920;2023-09-12T12:32:47;27.20;96.50
17370;DHT22;8802;52.402;4.920;2023-09-12T12:35:17;27.20;96.50
17370;DHT22;8802;52.402;4.920;2023-09-12T12:37:45;27.20;96.00
17370;DHT22;8802;52.402;4.920;2023-09-12T12:40:13;27.20;96.50
17370;DHT22;8802;52.402;4.920;2023-09-12T12:42:42;27.20;96.40
17370;DHT22;8802;52.402;4.920;2023-09-12T12:45:13;27.20;96.00
17370;DHT22;8802;52.402;4.920;2023-09-12T12:47:40;27.20;95.90
17370;DHT22;8802;52.402;4.920;2023-09-12T12:50:08;27.20;96.00
17370;DHT22;8802;52.402;4.920;2023-09-12T12:52:37;27.20;95.80
17370;DHT22;8802;52.402;4.920;2023-09-12T12:55:05;27.10;95.60
17370;DHT22;8802;52.402;4.920;2023-09-12T12:57:35;27.10;95.30
17370;DHT22;8802;52.402;4.920;2023-09-12T13:00:06;27.10;95.30
17370;DHT22;8802;52.402;4.920;2023-09-12T13:02:33;27.00;94.80
17370;DHT22;8802;52.402;4.920;2023-09-12T13:05:00;27.00;95.20
17370;DHT22;8802;52.402;4.920;2023-09-12T13:07:27;27.00;95.30
17370;DHT22;8802;52.402;4.920;2023-09-12T13:09:54;27.00;95.10
17370;DHT22;8802;52.402;4.920;2023-09-12T13:12:21;26.90;94.70
17370;DHT22;8802;52.402;4.920;2023-09-12T13:14:47;27.00;95.00
17370;DHT22;8802;52.402;4.920;2023-09-12T13:17:16;26.90;95.00
17370;DHT22;8802;52.402;4.920;2023-09-12T13:19:43;26.90;95.20
17370;DHT22;8802;52.402;4.920;2023-09-12T13:22:10;26.90;95.30
17370;DHT22;8802;52.402;4.920;2023-09-12T13:24:37;26.90;95.20
17370;DHT22;8802;52.402;4.920;2023-09-12T13:27:04;26.90;95.10
17370;DHT22;8802;52.402;4.920;2023-09-12T13:29:31;26.90;95.40
17370;DHT22;8802;52.402;4.920;2023-09-12T13:31:58;26.90;95.40
17370;DHT22;8802;52.402;4.920;2023-09-12T13:34:26;26.90;95.50
17370;DHT22;8802;52.402;4.920;2023-09-12T13:36:53;26.90;95.40
17370;DHT22;8802;52.402;4.920;2023-09-12T13:39:20;26.90;95.00
17370;DHT22;8802;52.402;4.920;2023-09-12T13:41:47;26.90;95.10
17370;DHT22;8802;52.402;4.920;2023-09-12T13:44:14;26.80;95.50
17370;DHT22;8802;52.402;4.920;2023-09-12T13:46:41;26.80;95.30
17370;DHT22;8802;52.402;4.920;2023-09-12T13:49:09;26.80;95.50
17370;DHT22;8802;52.402;4.920;2023-09-12T13:51:38;26.80;95.70
17370;DHT22;8802;52.402;4.920;2023-09-12T13:54:05;26.80;95.50
17370;DHT22;8802;52.402;4.920;2023-09-12T13:56:34;26.80;95.70
17370;DHT22;8802;52.402;4.920;2023-09-12T13:59:02;26.80;95.60
17370;DHT22;8802;52.402;4.920;2023-09-12T14:01:31;26.70;95.70
17370;DHT22;8802;52.402;4.920;2023-09-12T14:03:57;26.70;95.80
17370;DHT22;8802;52.402;4.920;2023-09-12T14:06:24;26.70;95.60
17370;DHT22;8802;52.402;4.920;2023-09-12T14:08:53;26.70;95.70
17370;DHT22;8802;52.402;4.920;2023-09-12T14:11:20;26.70;95.60
17370;DHT22;8802;52.402;4.920;2023-09-12T14:13:47;26.70;95.60
17370;DHT22;8802;52.402;4.920;2023-09-12T14:16:14;26.70;95.80
17370;DHT22;8802;52.402;4.920;2023-09-12T14:18:41;26.70;95.80
17370;DHT22;8802;52.402;4.920;2023-09-12T14:21:08;26.60;95.80
17370;DHT22;8802;52.402;4.920;2023-09-12T14:23:34;26.60;95.70
17370;DHT22;8802;52.402;4.920;2023-09-12T14:26:03;26.60;95.80
17370;DHT22;8802;52.402;4.920;2023-09-12T14:28:29;26.60;95.70
17370;DHT22;8802;52.402;4.920;2023-09-12T14:30:57;26.60;96.00
17370;DHT22;8802;52.402;4.920;2023-09-12T14:33:24;26.60;96.10
17370;DHT22;8802;52.402;4.920;2023-09-12T14:35:51;26.60;96.30
17370;DHT22;8802;52.402;4.920;2023-09-12T14:38:18;26.60;96.40
17370;DHT22;8802;52.402;4.920;2023-09-12T14:40:45;26.60;96.30
17370;DHT22;8802;52.402;4.920;2023-09-12T14:43:13;26.60;96.60
17370;DHT22;8802;52.402;4.920;2023-09-12T14:45:40;26.60;96.60
17370;DHT22;8802;52.402;4.920;2023-09-12T14:48:07;26.60;96.70
17370;DHT22;8802;52.402;4.920;2023-09-12T14:50:34;26.60;96.70
17370;DHT22;8802;52.402;4.920;2023-09-12T14:53:01;26.60;96.50
17370;DHT22;8802;52.402;4.920;2023-09-12T14:55:28;26.50;96.20
17370;DHT22;8802;52.402;4.920;2023-09-12T14:57:55;26.50;96.20
17370;DHT22;8802;52.402;4.920;2023-09-12T15:00:25;26.40;96.30
17370;DHT22;8802;52.402;4.920;2023-09-12T15:02:52;26.40;96.00
17370;DHT22;8802;52.402;4.920;2023-09-12T15:05:18;26.40;96.00
17370;DHT22;8802;52.402;4.920;2023-09-12T15:07:46;26.30;96.00
17370;DHT22;8802;52.402;4.920;2023-09-12T15:10:13;26.30;96.00
17370;DHT22;8802;52.402;4.920;2023-09-12T15:12:40;26.30;95.90
17370;DHT22;8802;52.402;4.920;2023-09-12T15:15:08;26.30;96.00
17370;DHT22;8802;52.402;4.920;2023-09-12T15:17:36;26.20;96.00
17370;DHT22;8802;52.402;4.920;2023-09-12T15:20:04;26.20;96.10
17370;DHT22;8802;52.402;4.920;2023-09-12T15:22:31;26.20;96.20
17370;DHT22;8802;52.402;4.920;2023-09-12T15:24:58;26.20;96.40
17370;DHT22;8802;52.402;4.920;2023-09-12T15:27:26;26.10;96.10
17370;DHT22;8802;52.402;4.920;2023-09-12T15:29:54;26.10;96.30
17370;DHT22;8802;52.402;4.920;2023-09-12T15:32:21;26.10;96.20
17370;DHT22;8802;52.402;4.920;2023-09-12T15:34:49;26.10;96.20
17370;DHT22;8802;52.402;4.920;2023-09-12T15:37:16;26.10;96.10
17370;DHT22;8802;52.402;4.920;2023-09-12T15:39:43;26.10;96.00
17370;DHT22;8802;52.402;4.920;2023-09-12T15:42:10;26.10;96.00
17370;DHT22;8802;52.402;4.920;2023-09-12T15:44:37;26.10;96.00
17370;DHT22;8802;52.402;4.920;2023-09-12T15:47:07;26.00;96.00
17370;DHT22;8802;52.402;4.920;2023-09-12T15:49:34;26.00;96.00